Time;durP1;ratioP1;P1;durP2;ratioP2;P2;SDS_P1;SDS_P2;PMS_P1;PMS_P2;Temp;Humidity;BMP_temperature;BMP_pressure;BME280_temperature;BME280_humidity;BME280_pressure;Samples;Min_cycle;Max_cycle;Signal;HPM_P1;HPM_P2
2023/06/12 00:00:54;;;;;;;6.63;5.60;;;22.80;62.10;;;;;;5014990;28;20474;-73
2023/06/12 00:03:24;;;;;;;6.17;5.30;;;22.80;61.70;;;;;;5018303;28;20520;-72
2023/06/12 00:05:50;;;;;;;7.70;5.67;;;22.70;62.10;;;;;;5019336;28;20841;-73
2023/06/12 00:08:17;;;;;;;6.03;5.40;;;22.60;62.30;;;;;;5004964;28;20476;-72
2023/06/12 00:10:45;;;;;;;5.83;5.17;;;22.50;62.30;;;;;;5014087;28;20460;-72
2023/06/12 00:13:11;;;;;;;5.43;4.93;;;22.50;63.10;;;;;;5012038;28;20441;-72
2023/06/12 00:15:38;;;;;;;5.73;5.23;;;22.40;63.00;;;;;;5013477;28;20547;-76
2023/06/12 00:18:04;;;;;;;6.03;5.50;;;22.40;63.20;;;;;;5003061;28;20506;-72
2023/06/12 00:20:33;;;;;;;6.10;5.50;;;22.50;63.20;;;;;;5015072;28;20464;-72
2023/06/12 00:22:59;;;;;;;7.40;5.90;;;22.50;63.60;;;;;;5020932;28;20467;-72
2023/06/12 00:25:26;;;;;;;9.60;5.90;;;22.40;63.40;;;;;;5013390;28;20456;-72
2023/06/12 00:27:52;;;;;;;7.43;5.90;;;22.30;63.60;;;;;;5014735;28;20456;-74
2023/06/12 00:30:18;;;;;;;7.07;6.43;;;22.20;63.40;;;;;;5001010;28;20510;-73
2023/06/12 00:32:44;;;;;;;7.07;6.23;;;22.20;63.70;;;;;;5014074;28;20455;-72
2023/06/12 00:35:10;;;;;;;6.23;5.50;;;22.20;64.30;;;;;;5018936;28;20230;-72
2023/06/12 00:37:36;;;;;;;6.73;5.63;;;22.00;64.20;;;;;;4993082;28;20712;-73
2023/06/12 00:40:03;;;;;;;6.37;5.77;;;22.10;64.40;;;;;;5009630;28;20596;-72
2023/06/12 00:42:33;;;;;;;6.40;5.80;;;21.90;64.70;;;;;;5027566;28;20725;-73
2023/06/12 00:45:00;;;;;;;5.33;4.93;;;21.80;64.70;;;;;;5009166;28;20856;-72
2023/06/12 00:47:26;;;;;;;7.67;5.90;;;22.00;65.00;;;;;;5022275;28;20450;-72
2023/06/12 00:49:52;;;;;;;8.53;5.70;;;21.50;65.30;;;;;;4994921;28;20707;-73
2023/06/12 00:52:24;;;;;;;5.90;5.30;;;21.60;65.80;;;;;;5013556;28;20476;-72
2023/06/12 00:54:50;;;;;;;6.47;5.70;;;21.80;65.50;;;;;;4995521;28;20246;-72
2023/06/12 00:57:16;;;;;;;8.93;6.27;;;21.90;65.30;;;;;;5009066;28;21189;-73
2023/06/12 00:59:42;;;;;;;6.73;5.93;;;21.90;65.40;;;;;;4992658;28;20314;-73
2023/06/12 01:02:09;;;;;;;6.50;5.90;;;21.90;65.40;;;;;;5008495;28;20249;-73
2023/06/12 01:04:37;;;;;;;6.50;6.00;;;21.80;65.50;;;;;;5003435;28;20221;-71
2023/06/12 01:07:29;;;;;;;6.00;5.50;;;21.90;65.60;;;;;;4997524;28;20449;-72
2023/06/12 01:10:05;;;;;;;6.80;5.53;;;21.90;65.70;;;;;;4987600;28;20464;-72
2023/06/12 01:12:32;;;;;;;7.57;5.33;;;21.80;65.90;;;;;;5016789;28;20451;-72
2023/06/12 01:14:57;;;;;;;6.33;5.73;;;21.90;65.90;;;;;;4989823;28;20480;-72
2023/06/12 01:17:23;;;;;;;12.00;6.00;;;21.80;65.70;;;;;;4997586;28;20437;-72
2023/06/12 01:19:49;;;;;;;6.60;6.10;;;21.50;66.10;;;;;;4997730;28;20225;-73
2023/06/12 01:22:20;;;;;;;9.90;5.70;;;21.40;66.90;;;;;;5020398;28;20714;-72
2023/06/12 01:25:04;;;;;;;7.20;6.50;;;21.40;67.10;;;;;;4992228;28;20226;-71
2023/06/12 01:27:55;;;;;;;7.97;6.30;;;21.20;67.50;;;;;;5000150;28;20527;-73
2023/06/12 01:30:46;;;;;;;7.47;6.77;;;21.50;66.70;;;;;;4986422;28;20985;-72
2023/06/12 01:33:17;;;;;;;7.13;6.10;;;21.40;67.10;;;;;;5008088;28;20456;-73
2023/06/12 01:35:47;;;;;;;7.07;6.37;;;21.50;67.50;;;;;;4991929;28;20452;-72
2023/06/12 01:38:17;;;;;;;7.30;6.60;;;21.60;67.50;;;;;;5001769;28;20437;-72
2023/06/12 01:40:46;;;;;;;7.53;6.80;;;21.50;67.10;;;;;;4992109;28;20472;-74
2023/06/12 01:43:12;;;;;;;6.30;5.70;;;21.60;67.30;;;;;;4996163;28;20448;-72
2023/06/12 01:45:39;;;;;;;7.33;5.97;;;21.50;67.30;;;;;;5020282;28;20795;-73
2023/06/12 01:48:05;;;;;;;7.67;6.57;;;21.50;67.50;;;;;;4998465;28;20213;-73
2023/06/12 01:50:31;;;;;;;7.93;6.13;;;21.50;67.60;;;;;;5009620;28;20471;-73
2023/06/12 01:52:57;;;;;;;6.50;5.93;;;21.50;67.70;;;;;;4991280;28;20548;-73
2023/06/12 01:55:24;;;;;;;7.90;7.10;;;21.50;67.70;;;;;;4988753;28;20710;-72
2023/06/12 01:57:51;;;;;;;8.00;7.30;;;21.40;67.70;;;;;;5014667;28;20309;-74
2023/06/12 02:00:22;;;;;;;6.67;6.07;;;21.40;67.90;;;;;;5010238;28;20882;-72
2023/06/12 02:02:53;;;;;;;7.83;7.07;;;21.40;67.70;;;;;;5007925;28;20543;-72
2023/06/12 02:05:21;;;;;;;7.77;7.07;;;21.40;67.80;;;;;;5014563;28;20252;-74
2023/06/12 02:07:46;;;;;;;6.17;5.57;;;21.30;67.80;;;;;;5004692;28;20477;-72
2023/06/12 02:10:12;;;;;;;7.83;6.70;;;21.30;67.80;;;;;;4987908;28;20222;-73
2023/06/12 02:12:38;;;;;;;7.00;6.27;;;21.40;68.80;;;;;;4999173;28;20228;-72
2023/06/12 02:15:04;;;;;;;7.20;6.50;;;21.30;68.00;;;;;;5010344;28;20313;-72
2023/06/12 02:17:32;;;;;;;6.63;6.03;;;21.30;68.20;;;;;;5010292;28;20459;-72
2023/06/12 02:19:59;;;;;;;8.23;7.37;;;21.30;68.20;;;;;;4992570;28;20886;-73
2023/06/12 02:22:25;;;;;;;9.10;6.93;;;21.20;68.40;;;;;;5011520;28;20463;-73
2023/06/12 02:24:50;;;;;;;10.20;6.40;;;21.10;68.40;;;;;;5020765;28;20467;-72
2023/06/12 02:27:16;;;;;;;6.97;6.27;;;21.10;68.60;;;;;;4980344;28;20214;-72
2023/06/12 02:29:42;;;;;;;7.43;6.73;;;21.10;68.80;;;;;;4988166;28;20687;-72
2023/06/12 02:32:08;;;;;;;7.53;6.73;;;21.10;68.60;;;;;;5019824;28;20221;-72
2023/06/12 02:34:33;;;;;;;7.87;6.67;;;21.10;68.60;;;;;;4994443;28;20319;-72
2023/06/12 02:36:59;;;;;;;7.40;6.70;;;21.00;68.50;;;;;;5016221;28;20234;-73
2023/06/12 02:39:27;;;;;;;8.20;6.87;;;21.00;69.10;;;;;;5007011;28;20775;-72
2023/06/12 02:41:53;;;;;;;6.83;6.23;;;21.00;68.70;;;;;;5006473;28;20444;-73
2023/06/12 02:44:19;;;;;;;10.20;7.57;;;21.10;68.60;;;;;;4994232;28;20451;-72
2023/06/12 02:46:54;;;;;;;6.47;5.90;;;21.00;68.80;;;;;;5016225;28;21055;-72
2023/06/12 02:49:25;;;;;;;7.00;6.40;;;21.00;69.00;;;;;;4993027;28;20456;-72
2023/06/12 02:51:51;;;;;;;6.90;6.40;;;21.00;68.80;;;;;;5006864;28;20523;-73
2023/06/12 02:54:18;;;;;;;8.23;6.77;;;21.00;68.90;;;;;;4987330;28;20508;-72
2023/06/12 02:56:47;;;;;;;7.50;6.70;;;21.00;68.80;;;;;;5011525;28;20214;-72
2023/06/12 02:59:15;;;;;;;7.27;6.57;;;21.00;68.70;;;;;;5012000;28;20444;-72
2023/06/12 03:01:43;;;;;;;8.70;7.70;;;21.00;68.60;;;;;;4995988;28;20461;-72
2023/06/12 03:04:18;;;;;;;8.37;7.33;;;21.00;68.90;;;;;;5015173;28;20535;-73
2023/06/12 03:06:46;;;;;;;7.60;6.90;;;21.00;68.70;;;;;;5006814;28;21011;-75
2023/06/12 03:09:15;;;;;;;7.20;6.57;;;21.00;68.70;;;;;;5017370;28;20468;-71
2023/06/12 03:11:42;;;;;;;7.67;6.97;;;21.00;68.60;;;;;;4998765;28;20517;-71
2023/06/12 03:14:08;;;;;;;9.73;7.53;;;21.00;68.70;;;;;;5007597;28;20460;-73
2023/06/12 03:16:34;;;;;;;7.30;6.50;;;20.90;68.30;;;;;;5008856;28;20983;-72
2023/06/12 03:19:00;;;;;;;7.40;6.67;;;20.90;68.70;;;;;;5009678;28;20241;-70
2023/06/12 03:21:26;;;;;;;7.23;6.53;;;20.80;69.20;;;;;;4997371;28;20230;-73
2023/06/12 03:23:51;;;;;;;8.10;7.07;;;20.80;69.20;;;;;;5007469;28;21053;-71
2023/06/12 03:26:18;;;;;;;7.10;6.40;;;20.80;69.60;;;;;;4997311;28;20218;-72
2023/06/12 03:28:45;;;;;;;7.87;7.17;;;20.80;69.70;;;;;;4999707;28;21005;-72
2023/06/12 03:31:12;;;;;;;6.90;6.30;;;20.80;69.60;;;;;;4989825;28;20218;-71
2023/06/12 03:33:40;;;;;;;6.50;5.90;;;20.60;69.70;;;;;;4997436;28;21006;-71
2023/06/12 03:36:11;;;;;;;7.20;6.50;;;20.50;70.10;;;;;;5006367;28;20495;-72
2023/06/12 03:38:37;;;;;;;7.30;6.60;;;20.50;70.70;;;;;;5007420;28;20537;-72
2023/06/12 03:41:02;;;;;;;7.97;7.17;;;20.50;70.80;;;;;;5005818;28;20548;-71
2023/06/12 03:43:28;;;;;;;7.40;6.17;;;20.60;70.50;;;;;;4987519;28;20246;-72
2023/06/12 03:45:54;;;;;;;6.67;6.10;;;20.60;70.40;;;;;;5005630;28;20229;-71
2023/06/12 03:48:19;;;;;;;7.20;6.50;;;20.60;70.70;;;;;;5007402;28;20255;-72
2023/06/12 03:50:45;;;;;;;7.20;6.50;;;20.50;70.80;;;;;;4989702;28;20261;-71
2023/06/12 03:53:11;;;;;;;7.73;6.93;;;20.50;71.00;;;;;;5006046;28;20334;-73
2023/06/12 03:55:37;;;;;;;10.00;6.90;;;20.50;70.90;;;;;;4982484;28;20223;-72
2023/06/12 03:58:03;;;;;;;7.37;6.60;;;20.50;70.90;;;;;;4993823;28;20472;-71
2023/06/12 04:00:29;;;;;;;7.93;7.23;;;20.40;71.10;;;;;;4999761;28;20232;-72
2023/06/12 04:02:56;;;;;;;7.73;7.00;;;20.40;71.40;;;;;;4990426;28;20871;-71
2023/06/12 04:05:21;;;;;;;7.50;6.80;;;20.30;71.80;;;;;;5007176;28;20457;-72
2023/06/12 04:07:47;;;;;;;7.20;6.50;;;20.30;72.50;;;;;;4998322;28;20483;-76
2023/06/12 04:10:14;;;;;;;9.37;6.50;;;20.20;72.10;;;;;;4969670;28;20639;-71
2023/06/12 04:12:40;;;;;;;7.47;6.23;;;20.20;72.00;;;;;;5009876;28;20468;-71
2023/06/12 04:15:06;;;;;;;7.20;6.53;;;20.20;72.20;;;;;;4985788;28;20226;-73
2023/06/12 04:17:32;;;;;;;7.27;6.57;;;20.20;72.40;;;;;;5010788;28;20947;-72
2023/06/12 04:19:58;;;;;;;6.57;5.97;;;20.20;72.30;;;;;;4986671;28;20497;-72
2023/06/12 04:22:25;;;;;;;10.90;6.77;;;20.30;72.30;;;;;;4994374;28;20217;-73
2023/06/12 04:24:55;;;;;;;6.63;6.03;;;20.30;71.70;;;;;;5001851;28;20226;-71
2023/06/12 04:27:21;;;;;;;7.03;6.33;;;20.30;72.30;;;;;;5009836;28;20444;-72
2023/06/12 04:29:47;;;;;;;8.83;6.70;;;20.20;72.40;;;;;;5010148;28;20534;-72
2023/06/12 04:32:13;;;;;;;7.17;6.47;;;20.20;72.70;;;;;;5009537;28;20221;-72
2023/06/12 04:34:41;;;;;;;6.83;6.20;;;20.20;72.70;;;;;;4996343;28;20309;-72
2023/06/12 04:37:11;;;;;;;7.70;6.90;;;20.20;72.70;;;;;;4991924;28;20444;-72
2023/06/12 04:39:38;;;;;;;7.73;6.50;;;20.30;73.00;;;;;;5011362;28;20460;-72
2023/06/12 04:42:08;;;;;;;7.17;6.57;;;20.30;73.00;;;;;;4992498;28;20460;-72
2023/06/12 04:44:35;;;;;;;7.20;6.60;;;20.30;73.30;;;;;;5016425;28;20452;-72
2023/06/12 04:47:04;;;;;;;8.43;6.50;;;20.30;72.80;;;;;;4992355;28;20474;-72
2023/06/12 04:49:32;;;;;;;6.97;6.27;;;20.30;73.20;;;;;;5010102;28;20228;-72
2023/06/12 04:52:03;;;;;;;7.23;6.53;;;20.20;73.50;;;;;;5006558;28;20484;-72
2023/06/12 04:54:35;;;;;;;7.77;6.27;;;20.30;73.70;;;;;;5006342;28;20453;-72
2023/06/12 04:57:12;;;;;;;8.13;7.23;;;20.30;73.30;;;;;;4997686;28;20454;-72
2023/06/12 04:59:39;;;;;;;11.77;6.13;;;20.30;73.90;;;;;;5006680;28;20871;-73
2023/06/12 05:02:08;;;;;;;6.70;6.00;;;20.40;73.80;;;;;;5007139;28;20453;-70
2023/06/12 05:04:38;;;;;;;7.10;6.50;;;20.40;73.20;;;;;;5010156;28;20460;-72
2023/06/12 05:07:13;;;;;;;6.70;6.10;;;20.50;73.60;;;;;;5012284;28;20452;-72
2023/06/12 05:09:40;;;;;;;7.27;6.53;;;20.40;73.40;;;;;;5004510;28;20467;-71
2023/06/12 05:12:07;;;;;;;8.00;6.60;;;20.40;73.10;;;;;;5007417;28;20479;-73
2023/06/12 05:14:36;;;;;;;7.43;6.10;;;20.50;73.30;;;;;;5009855;28;20460;-73
2023/06/12 05:17:02;;;;;;;7.37;6.67;;;20.50;73.00;;;;;;4994764;28;20445;-72
2023/06/12 05:19:28;;;;;;;6.70;6.10;;;20.60;73.80;;;;;;4992496;28;21014;-71
2023/06/12 05:21:54;;;;;;;9.77;7.03;;;20.60;73.00;;;;;;5007385;28;20226;-71
2023/06/12 05:24:20;;;;;;;10.13;6.53;;;20.60;72.80;;;;;;4990118;28;20214;-71
2023/06/12 05:26:47;;;;;;;7.80;7.00;;;20.60;73.30;;;;;;5007875;28;20452;-71
2023/06/12 05:29:13;;;;;;;6.63;6.03;;;20.60;73.30;;;;;;5003252;28;20449;-72
2023/06/12 05:31:38;;;;;;;7.53;6.57;;;20.70;73.50;;;;;;4986808;28;20222;-72
2023/06/12 05:34:04;;;;;;;6.83;5.57;;;20.70;73.70;;;;;;4993748;28;20217;-72
2023/06/12 05:36:32;;;;;;;6.40;5.80;;;20.80;73.50;;;;;;5003011;28;20532;-73
2023/06/12 05:39:00;;;;;;;9.17;6.73;;;20.80;73.80;;;;;;4985487;28;20517;-72
2023/06/12 05:41:26;;;;;;;7.27;6.43;;;20.80;73.70;;;;;;4997374;28;20603;-72
2023/06/12 05:43:53;;;;;;;7.83;5.53;;;20.80;74.30;;;;;;4987584;28;20829;-72
2023/06/12 05:46:20;;;;;;;8.37;7.23;;;20.80;74.10;;;;;;4987347;28;20333;-71
2023/06/12 05:48:45;;;;;;;6.47;5.97;;;20.90;75.10;;;;;;5006261;28;20477;-70
2023/06/12 05:51:12;;;;;;;7.03;6.30;;;21.00;75.30;;;;;;4991750;28;20326;-71
2023/06/12 05:53:38;;;;;;;7.50;6.70;;;21.00;75.10;;;;;;4991812;28;20506;-71
2023/06/12 05:56:04;;;;;;;8.47;6.73;;;21.10;76.10;;;;;;4990945;28;20465;-71
2023/06/12 05:58:30;;;;;;;7.57;6.90;;;21.30;76.60;;;;;;5005020;28;20229;-70
2023/06/12 06:00:55;;;;;;;9.07;6.30;;;21.40;76.90;;;;;;5004527;28;20247;-72
2023/06/12 06:03:42;;;;;;;7.47;6.77;;;21.50;76.60;;;;;;5008033;28;20300;-70
2023/06/12 06:06:09;;;;;;;7.37;6.67;;;21.50;76.50;;;;;;5004767;28;20441;-73
2023/06/12 06:08:35;;;;;;;6.90;6.30;;;21.50;76.90;;;;;;4988197;28;21009;-74
2023/06/12 06:11:00;;;;;;;7.67;6.97;;;21.60;76.80;;;;;;5006195;28;20456;-71
2023/06/12 06:13:27;;;;;;;8.77;7.17;;;21.70;76.60;;;;;;5008359;28;20268;-70
2023/06/12 06:15:53;;;;;;;7.17;6.53;;;21.80;76.80;;;;;;5006325;28;20469;-75
2023/06/12 06:18:19;;;;;;;7.10;6.50;;;21.80;76.20;;;;;;5005673;28;20596;-71
2023/06/12 06:20:44;;;;;;;9.90;7.30;;;21.90;76.20;;;;;;4991619;28;20342;-71
2023/06/12 06:23:10;;;;;;;16.77;6.97;;;21.90;76.10;;;;;;5005117;28;20213;-70
2023/06/12 06:25:38;;;;;;;6.70;6.10;;;22.10;76.10;;;;;;5007656;28;20463;-71
2023/06/12 06:28:05;;;;;;;7.20;6.27;;;22.10;75.90;;;;;;4995858;28;20233;-71
2023/06/12 06:30:30;;;;;;;7.80;7.10;;;22.10;75.80;;;;;;4993352;28;20488;-71
2023/06/12 06:32:56;;;;;;;9.30;7.50;;;22.10;75.50;;;;;;5004443;28;20495;-71
2023/06/12 06:35:24;;;;;;;7.87;6.73;;;22.30;75.70;;;;;;5007164;28;20590;-71
2023/06/12 06:37:50;;;;;;;6.47;5.87;;;22.30;75.20;;;;;;5004050;28;20490;-71
2023/06/12 06:40:16;;;;;;;8.97;6.90;;;22.30;75.30;;;;;;4989740;28;20480;-71
2023/06/12 06:42:42;;;;;;;7.60;7.00;;;22.40;75.00;;;;;;5006772;28;20228;-71
2023/06/12 06:45:11;;;;;;;10.10;7.13;;;22.50;75.30;;;;;;5006126;28;20500;-69
2023/06/12 06:47:36;;;;;;;8.00;7.30;;;22.50;75.10;;;;;;4990345;28;20989;-71
2023/06/12 06:50:04;;;;;;;7.73;7.13;;;22.60;75.20;;;;;;5005916;28;20627;-70
2023/06/12 06:52:30;;;;;;;8.53;6.57;;;22.70;75.40;;;;;;4990979;28;20452;-70
2023/06/12 06:54:57;;;;;;;7.63;6.93;;;22.70;75.40;;;;;;4993951;28;20448;-71
2023/06/12 06:57:23;;;;;;;7.00;6.40;;;22.70;75.70;;;;;;5002858;28;20503;-72
2023/06/12 06:59:50;;;;;;;9.03;6.80;;;22.90;75.80;;;;;;4990433;28;20885;-70
2023/06/12 07:02:16;;;;;;;7.63;6.93;;;22.90;75.30;;;;;;4989456;28;20205;-70
2023/06/12 07:04:44;;;;;;;7.40;6.80;;;23.00;75.60;;;;;;4989089;28;20827;-71
2023/06/12 07:07:10;;;;;;;6.93;6.33;;;23.10;75.20;;;;;;5007512;28;20509;-70
2023/06/12 07:09:38;;;;;;;10.00;7.60;;;23.10;74.90;;;;;;5003710;28;20544;-71
2023/06/12 07:12:05;;;;;;;7.33;6.73;;;23.20;75.00;;;;;;5005217;28;20683;-70
2023/06/12 07:14:31;;;;;;;7.43;6.70;;;23.30;75.20;;;;;;5006513;28;20452;-70
2023/06/12 07:16:57;;;;;;;7.03;6.43;;;23.40;75.00;;;;;;4999330;28;20527;-71
2023/06/12 07:19:22;;;;;;;10.00;7.30;;;23.40;74.80;;;;;;5004770;28;20301;-71
2023/06/12 07:21:49;;;;;;;8.30;7.00;;;23.50;75.10;;;;;;5006585;28;20244;-71
2023/06/12 07:24:17;;;;;;;7.70;6.90;;;23.60;75.20;;;;;;5005050;28;20218;-72
2023/06/12 07:26:44;;;;;;;7.07;6.43;;;23.70;75.00;;;;;;5000616;28;20444;-71
2023/06/12 07:29:10;;;;;;;8.70;7.90;;;23.70;75.00;;;;;;4994278;28;20537;-71
2023/06/12 07:31:36;;;;;;;7.77;7.07;;;23.80;75.50;;;;;;5006590;28;20475;-71
2023/06/12 07:34:02;;;;;;;7.37;6.67;;;23.80;75.50;;;;;;4998069;28;20457;-71
2023/06/12 07:36:31;;;;;;;7.63;6.90;;;24.00;75.40;;;;;;5006138;28;20221;-72
2023/06/12 07:38:57;;;;;;;7.17;6.57;;;24.20;75.80;;;;;;5001585;28;20862;-71
2023/06/12 07:41:23;;;;;;;7.53;6.93;;;24.20;75.70;;;;;;4999887;28;20466;-71
2023/06/12 07:43:50;;;;;;;8.27;7.57;;;24.30;75.90;;;;;;4986347;28;20471;-70
2023/06/12 07:46:16;;;;;;;7.13;6.53;;;24.50;75.40;;;;;;4993518;28;20958;-74
2023/06/12 07:48:42;;;;;;;8.40;7.60;;;24.50;75.10;;;;;;5008468;28;20301;-71
2023/06/12 07:51:08;;;;;;;7.77;6.90;;;24.40;75.10;;;;;;5008428;28;20922;-74
2023/06/12 07:53:33;;;;;;;7.93;7.13;;;24.30;75.60;;;;;;4994597;28;20247;-73
2023/06/12 07:56:00;;;;;;;8.10;7.40;;;24.30;76.10;;;;;;4992244;28;20225;-70
2023/06/12 07:58:27;;;;;;;7.73;6.93;;;24.60;76.70;;;;;;5009841;28;20217;-71
2023/06/12 08:00:54;;;;;;;8.40;7.60;;;24.80;76.10;;;;;;4990987;28;20468;-70
2023/06/12 08:03:24;;;;;;;8.03;7.33;;;24.70;76.20;;;;;;5009838;28;20581;-71
2023/06/12 08:05:53;;;;;;;8.40;7.80;;;24.90;76.10;;;;;;5010716;28;20536;-70
2023/06/12 08:08:20;;;;;;;8.23;7.33;;;24.80;75.90;;;;;;4990683;28;20881;-71
2023/06/12 08:10:46;;;;;;;8.10;7.40;;;25.00;76.60;;;;;;4982217;28;20452;-71
2023/06/12 08:13:12;;;;;;;7.97;7.37;;;25.20;75.90;;;;;;4993535;28;20963;-71
2023/06/12 08:15:38;;;;;;;8.00;7.30;;;25.10;76.00;;;;;;4994848;28;20583;-72
2023/06/12 08:18:06;;;;;;;7.50;6.90;;;25.30;76.10;;;;;;5007991;28;20479;-72
2023/06/12 08:20:32;;;;;;;8.20;7.43;;;25.50;75.30;;;;;;5011455;28;20456;-71
2023/06/12 08:22:58;;;;;;;8.00;7.40;;;25.60;75.30;;;;;;5008820;28;20213;-74
2023/06/12 08:25:25;;;;;;;7.97;7.27;;;25.50;75.40;;;;;;4989044;28;20506;-72
2023/06/12 08:27:51;;;;;;;8.50;7.50;;;25.70;75.40;;;;;;5007969;28;20539;-72
2023/06/12 08:30:17;;;;;;;7.37;6.67;;;25.90;75.20;;;;;;4991226;28;20232;-71
2023/06/12 08:32:43;;;;;;;7.30;6.70;;;26.00;74.90;;;;;;5004998;28;20448;-71
2023/06/12 08:35:09;;;;;;;7.67;6.97;;;26.00;74.70;;;;;;4991497;28;20221;-72
2023/06/12 08:37:35;;;;;;;8.00;7.20;;;26.00;74.10;;;;;;5006875;28;20214;-72
2023/06/12 08:40:01;;;;;;;7.40;6.70;;;26.20;74.00;;;;;;5005991;28;20213;-71
2023/06/12 08:42:26;;;;;;;7.40;6.80;;;26.50;73.50;;;;;;5009384;28;20228;-71
2023/06/12 08:45:01;;;;;;;8.17;7.47;;;26.50;73.50;;;;;;5006968;28;20321;-71
2023/06/12 08:47:33;;;;;;;8.10;7.40;;;26.40;73.50;;;;;;5001705;28;20491;-73
2023/06/12 08:49:59;;;;;;;8.70;7.90;;;26.50;73.30;;;;;;5022663;28;20239;-71
2023/06/12 08:52:25;;;;;;;7.70;6.90;;;26.40;73.40;;;;;;5006763;28;20978;-71
2023/06/12 08:54:51;;;;;;;8.30;7.50;;;26.70;73.20;;;;;;5003280;28;20279;-71
2023/06/12 08:57:19;;;;;;;8.47;7.67;;;26.60;73.10;;;;;;5013610;28;20217;-72
2023/06/12 08:59:45;;;;;;;8.27;7.57;;;26.50;73.50;;;;;;5006155;28;20984;-71
2023/06/12 09:02:11;;;;;;;8.33;7.30;;;26.60;73.50;;;;;;4991264;28;20444;-71
2023/06/12 09:04:52;;;;;;;8.97;8.17;;;26.40;73.10;;;;;;5005938;28;20225;-73
2023/06/12 09:07:18;;;;;;;7.63;7.03;;;26.60;73.00;;;;;;5005074;28;20217;-72
2023/06/12 09:09:46;;;;;;;7.97;7.20;;;26.70;72.70;;;;;;5002201;28;20312;-71
2023/06/12 09:12:14;;;;;;;9.20;7.50;;;26.70;72.50;;;;;;5007860;28;20205;-74
2023/06/12 09:14:45;;;;;;;8.43;7.73;;;26.90;73.10;;;;;;4990566;28;20445;-73
2023/06/12 09:17:11;;;;;;;8.50;7.80;;;27.20;72.90;;;;;;5006689;28;20225;-72
2023/06/12 09:19:40;;;;;;;8.50;7.70;;;27.50;71.90;;;;;;5007450;28;20221;-72
2023/06/12 09:22:06;;;;;;;8.65;7.95;;;27.70;71.60;;;;;;5003054;28;20224;-70
2023/06/12 09:24:32;;;;;;;9.18;8.32;;;27.60;70.90;;;;;;5006642;28;20214;-72
2023/06/12 09:27:00;;;;;;;9.50;7.28;;;27.80;70.70;;;;;;5004717;28;20237;-72
2023/06/12 09:29:31;;;;;;;7.30;6.70;;;28.00;70.00;;;;;;5004505;28;20227;-72
2023/06/12 09:32:03;;;;;;;8.35;7.65;;;27.80;69.80;;;;;;4993364;28;20229;-72
2023/06/12 09:34:33;;;;;;;8.00;7.30;;;27.90;70.50;;;;;;4997192;28;20751;-71
2023/06/12 09:37:00;;;;;;;8.07;7.43;;;28.00;70.30;;;;;;5005554;28;20249;-71
2023/06/12 09:39:27;;;;;;;7.88;7.28;;;28.10;70.50;;;;;;4996480;28;20615;-72
2023/06/12 09:41:57;;;;;;;8.02;7.43;;;28.20;69.90;;;;;;5005234;28;20225;-72
2023/06/12 09:44:24;;;;;;;8.23;7.43;;;28.20;69.90;;;;;;5005552;28;20221;-72
2023/06/12 09:46:51;;;;;;;9.95;8.13;;;28.10;70.10;;;;;;5001512;28;20707;-71
2023/06/12 09:49:19;;;;;;;7.35;6.80;;;28.20;70.20;;;;;;4997348;28;20213;-72
2023/06/12 09:51:49;;;;;;;8.07;7.40;;;28.50;70.50;;;;;;5005512;28;20217;-72
2023/06/12 09:54:16;;;;;;;8.50;7.70;;;28.20;69.30;;;;;;5005013;28;20303;-74
2023/06/12 09:56:44;;;;;;;8.23;7.53;;;28.00;70.50;;;;;;5006595;28;20602;-72
2023/06/12 09:59:16;;;;;;;7.25;6.65;;;28.30;70.20;;;;;;5002581;28;20252;-72
2023/06/12 10:01:46;;;;;;;8.48;7.78;;;28.30;70.10;;;;;;5008459;28;20296;-71
2023/06/12 10:04:14;;;;;;;7.80;7.10;;;28.40;69.80;;;;;;5007019;28;20233;-72
2023/06/12 10:06:42;;;;;;;7.78;7.18;;;28.50;69.40;;;;;;5011615;28;20221;-71
2023/06/12 10:09:10;;;;;;;7.97;7.30;;;28.80;69.20;;;;;;5005083;28;20264;-72
2023/06/12 10:11:37;;;;;;;8.43;7.75;;;28.80;69.30;;;;;;4991940;28;20300;-71
2023/06/12 10:14:03;;;;;;;7.93;7.22;;;28.70;67.80;;;;;;4989521;28;20217;-75
2023/06/12 10:16:30;;;;;;;7.53;6.82;;;28.80;67.60;;;;;;5007175;28;20229;-71
2023/06/12 10:18:58;;;;;;;8.13;7.43;;;28.90;66.60;;;;;;5009493;28;20221;-72
2023/06/12 10:21:24;;;;;;;6.55;5.97;;;29.20;65.00;;;;;;4991930;28;20236;-72
2023/06/12 10:23:51;;;;;;;7.00;6.40;;;29.10;63.90;;;;;;5007483;28;20245;-72
2023/06/12 10:26:17;;;;;;;8.23;7.53;;;28.90;62.70;;;;;;5009291;28;20217;-72
2023/06/12 10:28:43;;;;;;;7.47;6.88;;;28.70;63.30;;;;;;5005383;28;20220;-72
2023/06/12 10:31:16;;;;;;;7.68;6.97;;;28.90;64.00;;;;;;4994094;28;20604;-71
2023/06/12 10:34:00;;;;;;;8.07;7.38;;;29.00;62.90;;;;;;5003766;28;20221;-72
2023/06/12 10:36:40;;;;;;;6.88;6.25;;;28.60;62.40;;;;;;5007503;28;20667;-72
2023/06/12 10:39:22;;;;;;;7.65;7.05;;;28.60;62.70;;;;;;5001397;28;20602;-72
2023/06/12 10:41:59;;;;;;;7.18;6.57;;;28.60;63.00;;;;;;4992556;28;20229;-74
2023/06/12 10:44:37;;;;;;;7.60;7.00;;;28.70;61.70;;;;;;5002587;28;20687;-73
2023/06/12 10:47:04;;;;;;;7.93;7.30;;;28.60;60.40;;;;;;5006544;28;20213;-72
2023/06/12 10:49:30;;;;;;;7.40;6.80;;;29.00;59.60;;;;;;5009274;28;20233;-74
2023/06/12 10:51:58;;;;;;;7.82;7.13;;;29.40;59.50;;;;;;5005873;28;20271;-73
2023/06/12 10:54:26;;;;;;;8.65;6.95;;;29.50;59.00;;;;;;5007758;28;20229;-72
2023/06/12 10:57:02;;;;;;;7.05;6.55;;;29.70;59.10;;;;;;5007517;28;20228;-72
2023/06/12 10:59:35;;;;;;;8.20;7.50;;;29.70;59.30;;;;;;5005928;28;20734;-73
2023/06/12 11:02:03;;;;;;;8.40;7.80;;;29.50;59.80;;;;;;5005590;28;20268;-72
2023/06/12 11:04:36;;;;;;;9.48;8.55;;;29.20;60.10;;;;;;5005113;28;20213;-72
2023/06/12 11:07:03;;;;;;;8.35;7.65;;;29.20;60.50;;;;;;5013621;28;20225;-73
2023/06/12 11:09:33;;;;;;;8.48;7.78;;;29.50;60.30;;;;;;5002609;28;20531;-71
2023/06/12 11:12:02;;;;;;;8.70;7.90;;;29.80;60.50;;;;;;5010699;28;20308;-72
2023/06/12 11:14:31;;;;;;;9.98;8.85;;;29.90;60.50;;;;;;5005228;28;20222;-74
2023/06/12 11:16:58;;;;;;;9.13;8.43;;;30.20;61.00;;;;;;4989351;28;20275;-71
2023/06/12 11:19:27;;;;;;;7.75;7.05;;;30.10;61.20;;;;;;4986348;28;20324;-72
2023/06/12 11:21:55;;;;;;;8.85;8.10;;;29.80;60.10;;;;;;5006169;28;20254;-72
2023/06/12 11:24:21;;;;;;;9.13;8.32;;;29.80;59.80;;;;;;4992931;28;20225;-73
2023/06/12 11:26:51;;;;;;;8.13;7.47;;;29.70;59.50;;;;;;5005706;28;21116;-71
2023/06/12 11:29:19;;;;;;;8.65;7.95;;;29.30;59.80;;;;;;5005298;28;20217;-73
2023/06/12 11:32:04;;;;;;;9.23;8.13;;;29.20;60.00;;;;;;5005702;28;20225;-72
2023/06/12 11:34:36;;;;;;;8.32;7.60;;;29.30;59.80;;;;;;5006910;28;20221;-72
2023/06/12 11:37:16;;;;;;;8.95;8.23;;;29.30;59.90;;;;;;5008301;28;20734;-71
2023/06/12 11:39:43;;;;;;;9.23;8.43;;;29.30;59.30;;;;;;5005646;28;20315;-72
2023/06/12 11:42:13;;;;;;;8.63;7.85;;;29.30;59.50;;;;;;5006726;28;20320;-72
2023/06/12 11:44:39;;;;;;;8.85;8.05;;;29.30;59.70;;;;;;5007441;28;20312;-72
2023/06/12 11:47:06;;;;;;;9.07;8.35;;;29.20;59.60;;;;;;5007577;28;20228;-72
2023/06/12 11:49:34;;;;;;;8.60;7.88;;;28.90;59.60;;;;;;4987152;28;20723;-71
2023/06/12 11:52:00;;;;;;;8.90;8.05;;;29.10;59.60;;;;;;5009741;28;20228;-71
2023/06/12 11:54:26;;;;;;;9.73;8.52;;;29.20;59.70;;;;;;5009539;28;20224;-71
2023/06/12 11:56:52;;;;;;;8.82;8.02;;;29.10;59.70;;;;;;5009626;28;20282;-71
2023/06/12 11:59:21;;;;;;;9.43;8.38;;;29.20;59.80;;;;;;5008760;28;20262;-71
2023/06/12 12:01:48;;;;;;;9.07;8.38;;;29.50;59.60;;;;;;4986369;28;20256;-73
2023/06/12 12:04:17;;;;;;;9.05;8.25;;;29.40;58.70;;;;;;5013995;28;20707;-71
2023/06/12 12:06:50;;;;;;;8.80;8.10;;;29.40;58.50;;;;;;4987845;28;20229;-71
2023/06/12 12:09:23;;;;;;;8.65;7.95;;;29.50;58.50;;;;;;5007486;28;20289;-71
2023/06/12 12:11:49;;;;;;;8.52;7.82;;;29.80;58.40;;;;;;4993656;28;20618;-71
2023/06/12 12:14:15;;;;;;;10.05;8.30;;;30.00;58.20;;;;;;4982128;28;20225;-71
2023/06/12 12:16:43;;;;;;;8.98;8.18;;;29.90;58.20;;;;;;4997200;28;20229;-71
2023/06/12 12:19:25;;;;;;;8.20;7.50;;;30.00;58.30;;;;;;4989259;28;20225;-71
2023/06/12 12:21:51;;;;;;;8.07;7.47;;;30.00;57.50;;;;;;5008268;28;20309;-71
2023/06/12 12:24:17;;;;;;;9.07;8.18;;;29.90;57.40;;;;;;5006605;28;20225;-71
2023/06/12 12:26:50;;;;;;;8.60;7.82;;;29.70;56.80;;;;;;5014626;28;20295;-71
2023/06/12 12:29:17;;;;;;;9.25;8.25;;;29.40;56.60;;;;;;5016248;28;20232;-71
2023/06/12 12:31:43;;;;;;;8.98;8.27;;;29.40;57.20;;;;;;4989649;28;20688;-71
2023/06/12 12:34:09;;;;;;;9.60;8.60;;;29.70;57.20;;;;;;5008984;28;20224;-76
2023/06/12 12:36:36;;;;;;;9.18;8.27;;;29.90;56.50;;;;;;5017514;28;20218;-71
2023/06/12 12:39:02;;;;;;;9.57;8.68;;;30.00;57.10;;;;;;4994389;28;20869;-73
2023/06/12 12:41:28;;;;;;;9.35;8.55;;;29.90;57.00;;;;;;5009024;28;20232;-72
2023/06/12 12:43:54;;;;;;;8.65;7.93;;;29.70;56.80;;;;;;4996111;28;20604;-73
2023/06/12 12:46:22;;;;;;;9.90;8.98;;;29.50;56.70;;;;;;4991730;28;20237;-71
2023/06/12 12:48:49;;;;;;;9.90;9.00;;;29.50;56.90;;;;;;5013437;28;20221;-73